Time;durP1;ratioP1;P1;durP2;ratioP2;P2;SDS_P1;SDS_P2;PMS_P1;PMS_P2;Temp;Humidity;BMP_temperature;BMP_pressure;BME280_temperature;BME280_humidity;BME280_pressure;Samples;Min_cycle;Max_cycle;Signal;HPM_P1;HPM_P2
2021/04/25 08:22:20;;;;;;;9.77;8.77;;;16.90;26.60;;;;;;6117116;23;20203;-94
2021/04/25 08:24:46;;;;;;;10.97;9.57;;;16.60;27.20;;;;;;6132193;23;20422;-94
2021/04/25 08:27:18;;;;;;;10.93;9.83;;;16.80;27.10;;;;;;6131582;23;20710;-94
2021/04/25 08:29:44;;;;;;;11.00;10.00;;;16.80;28.20;;;;;;6132236;23;20378;-94
2021/04/25 08:32:10;;;;;;;11.83;10.67;;;16.90;27.00;;;;;;6132949;23;20242;-94
2021/04/25 08:34:36;;;;;;;11.50;9.23;;;16.70;27.40;;;;;;6132787;23;20147;-94
2021/04/25 08:37:08;;;;;;;11.57;10.47;;;16.70;27.60;;;;;;6132353;23;20387;-94
2021/04/25 08:39:34;;;;;;;11.63;10.47;;;16.50;27.50;;;;;;6131960;23;20168;-93
2021/04/25 08:42:00;;;;;;;12.48;10.80;;;16.40;27.60;;;;;;6132301;23;20464;-95
2021/04/25 08:44:26;;;;;;;10.77;9.80;;;16.60;27.60;;;;;;6141933;23;20152;-95
2021/04/25 08:46:53;;;;;;;14.30;9.90;;;16.70;28.50;;;;;;6135952;23;20575;-93
2021/04/25 08:49:24;;;;;;;12.50;10.40;;;16.50;27.70;;;;;;6133985;23;20474;-94
2021/04/25 08:52:13;;;;;;;13.90;11.83;;;16.30;27.60;;;;;;6133527;23;20418;-94
2021/04/25 08:54:40;;;;;;;11.30;10.20;;;16.10;28.50;;;;;;6133338;23;20412;-95
2021/04/25 08:57:06;;;;;;;15.93;9.97;;;16.00;28.00;;;;;;6132781;23;20439;-95
2021/04/25 09:09:49;;;;;;;12.77;10.10;;;16.40;28.70;;;;;;6159941;23;20334;-94
2021/04/25 09:12:40;;;;;;;9.77;8.77;;;16.80;27.80;;;;;;6135901;23;20422;-96
2021/04/25 09:15:12;;;;;;;11.57;9.80;;;15.90;27.50;;;;;;6135260;23;20415;-94
2021/04/25 09:21:08;;;;;;;11.13;9.20;;;16.30;28.50;;;;;;6163769;23;20468;-96
2021/04/25 09:23:34;;;;;;;10.83;9.80;;;16.70;28.20;;;;;;6136756;23;20415;-96
2021/04/25 09:26:06;;;;;;;11.70;10.37;;;16.50;27.40;;;;;;6135185;23;20454;-94
2021/04/25 09:31:54;;;;;;;11.87;10.47;;;16.40;27.70;;;;;;6163051;23;20473;-94
2021/04/25 09:37:48;;;;;;;16.30;9.77;;;16.20;27.80;;;;;;6162203;23;20841;-94
2021/04/25 09:40:51;;;;;;;13.60;9.20;;;16.50;28.30;;;;;;6135046;23;20453;-94
2021/04/25 09:43:19;;;;;;;15.83;10.13;;;16.20;27.10;;;;;;6136692;23;20395;-95
2021/04/25 09:45:48;;;;;;;11.73;10.40;;;17.00;27.00;;;;;;6136743;23;20469;-94
2021/04/25 09:48:35;;;;;;;11.50;10.37;;;17.00;27.60;;;;;;6135468;23;20870;-90
2021/04/25 09:51:08;;;;;;;11.27;10.27;;;16.90;27.00;;;;;;6134080;23;20395;-93
2021/04/25 09:53:36;;;;;;;9.57;8.67;;;17.00;26.80;;;;;;6141799;23;20391;-96
2021/04/25 09:56:36;;;;;;;12.10;9.83;;;17.20;27.30;;;;;;6133462;23;20732;-93
2021/04/25 09:59:03;;;;;;;10.77;9.57;;;17.20;26.20;;;;;;6132827;23;20387;-94
2021/04/25 10:01:38;;;;;;;10.27;8.70;;;17.10;26.60;;;;;;6132898;23;20384;-94
2021/04/25 10:04:38;;;;;;;10.13;9.20;;;16.80;26.90;;;;;;6132678;23;20398;-93
2021/04/25 10:07:08;;;;;;;10.93;9.77;;;16.70;26.70;;;;;;6132887;23;20398;-94
2021/04/25 10:09:47;;;;;;;13.80;9.87;;;16.80;26.70;;;;;;6132956;23;20437;-94
2021/04/25 10:12:12;;;;;;;10.03;8.90;;;16.80;26.70;;;;;;6132520;23;20430;-94
2021/04/25 10:18:00;;;;;;;12.20;10.03;;;16.70;25.90;;;;;;6162320;23;20135;-94
2021/04/25 10:20:26;;;;;;;10.53;9.50;;;16.90;25.40;;;;;;6135066;23;20383;-94
2021/04/25 10:22:52;;;;;;;11.83;9.20;;;16.90;25.90;;;;;;6136825;23;20751;-95
2021/04/25 10:25:40;;;;;;;10.17;9.03;;;17.10;25.60;;;;;;6136177;23;20224;-94
2021/04/25 10:28:26;;;;;;;10.77;9.63;;;17.20;25.60;;;;;;6133935;23;20491;-94
2021/04/25 10:31:23;;;;;;;10.00;9.07;;;17.20;25.60;;;;;;6134417;23;20379;-92
2021/04/25 10:34:00;;;;;;;11.47;10.07;;;17.10;25.70;;;;;;6127138;23;20465;-95
2021/04/25 10:36:47;;;;;;;11.30;9.90;;;17.20;25.30;;;;;;6134368;23;20411;-93
2021/04/25 10:39:50;;;;;;;12.97;11.20;;;17.10;25.30;;;;;;6138613;23;20372;-95
2021/04/25 10:43:01;;;;;;;10.27;8.57;;;16.90;25.10;;;;;;6166349;23;20706;-94
2021/04/25 10:45:30;;;;;;;10.43;9.33;;;17.30;25.90;;;;;;6133519;23;20474;-95
2021/04/25 10:48:26;;;;;;;9.83;8.83;;;17.70;25.30;;;;;;6134063;23;20386;-95
2021/04/25 10:51:13;;;;;;;10.20;9.07;;;17.60;24.80;;;;;;6133665;23;20383;-94
2021/04/25 10:53:46;;;;;;;10.10;9.17;;;17.80;24.50;;;;;;6130517;23;20940;-95
2021/04/25 10:56:31;;;;;;;9.83;8.93;;;18.10;24.50;;;;;;6135296;23;20389;-91
2021/04/25 10:59:20;;;;;;;11.30;9.30;;;17.80;24.20;;;;;;6133671;23;20383;-93
2021/04/25 11:01:47;;;;;;;11.07;8.97;;;17.60;23.40;;;;;;6133156;23;20377;-93
2021/04/25 11:05:04;;;;;;;10.90;9.23;;;17.70;23.80;;;;;;6133519;23;20716;-94
2021/04/25 11:07:35;;;;;;;11.40;10.37;;;17.50;23.40;;;;;;6132589;23;20482;-93
2021/04/25 11:10:06;;;;;;;11.37;10.20;;;17.70;23.10;;;;;;6133032;23;20430;-93
2021/04/25 11:12:37;;;;;;;10.33;9.43;;;17.60;23.40;;;;;;6132711;23;20422;-93
2021/04/25 11:15:59;;;;;;;9.00;8.10;;;17.50;23.40;;;;;;6132375;23;20380;-93
2021/04/25 11:18:44;;;;;;;8.13;7.27;;;17.80;22.90;;;;;;6133067;23;20794;-94
2021/04/25 11:21:53;;;;;;;7.80;7.10;;;18.10;23.00;;;;;;6131847;23;20367;-94
2021/04/25 11:24:22;;;;;;;13.43;10.93;;;18.30;22.60;;;;;;6133128;23;20398;-94
2021/04/25 11:26:51;;;;;;;15.27;10.83;;;18.40;22.60;;;;;;6135040;23;20383;-94
2021/04/25 11:30:10;;;;;;;10.50;8.90;;;18.30;21.90;;;;;;6139477;23;20482;-95
2021/04/25 11:32:39;;;;;;;12.27;11.07;;;18.50;21.40;;;;;;6135147;23;20427;-94
2021/04/25 11:35:24;;;;;;;8.83;8.03;;;18.50;21.80;;;;;;6132841;23;20433;-93
2021/04/25 11:37:50;;;;;;;10.70;9.57;;;18.50;22.00;;;;;;6134068;23;20371;-90
2021/04/25 11:40:21;;;;;;;6.50;5.90;;;18.40;22.10;;;;;;6134574;23;20433;-96
2021/04/25 11:46:09;;;;;;;8.10;7.10;;;18.80;20.40;;;;;;6165302;23;20343;-95
2021/04/25 11:52:24;;;;;;;12.30;10.77;;;18.20;21.20;;;;;;6161492;23;20178;-95
2021/04/25 11:58:17;;;;;;;10.60;9.60;;;18.20;21.60;;;;;;6159696;23;20351;-95
2021/04/25 12:04:05;;;;;;;9.80;8.77;;;18.60;21.30;;;;;;6160130;23;20821;-95
2021/04/25 12:09:53;;;;;;;7.10;6.50;;;18.60;21.50;;;;;;6160951;23;20144;-93
2021/04/25 12:19:34;;;;;;;8.60;6.60;;;19.00;19.90;;;;;;6012595;23;20387;-92
2021/04/25 12:29:38;;;;;;;9.90;8.90;;;19.00;19.50;;;;;;5993627;23;20349;-92
2021/04/25 12:32:06;;;;;;;12.70;11.47;;;19.10;19.60;;;;;;6019056;23;20430;-91
2021/04/25 12:37:54;;;;;;;9.27;7.73;;;19.40;20.10;;;;;;6137244;23;20415;-93
2021/04/25 12:40:55;;;;;;;6.90;6.30;;;19.10;20.00;;;;;;6110929;23;20400;-91
2021/04/25 12:43:21;;;;;;;7.40;6.23;;;19.10;20.00;;;;;;6106412;23;20148;-92
2021/04/25 12:55:43;;;;;;;6.70;5.00;;;19.90;17.30;;;;;;6122209;23;20387;-92
2021/04/25 12:58:15;;;;;;;6.13;5.63;;;19.80;16.90;;;;;;6106273;23;20372;-92
2021/04/25 13:04:24;;;;;;;6.60;5.97;;;20.30;16.90;;;;;;6136389;23;20400;-94
2021/04/25 13:10:18;;;;;;;4.97;4.60;;;20.20;16.10;;;;;;6145894;23;20818;-96
2021/04/25 13:16:14;;;;;;;6.30;5.00;;;20.20;15.80;;;;;;6148311;23;20372;-96
2021/04/25 15:28:48;;;;;;;3.20;2.80;;;20.50;11.40;;;;;;6133499;23;20348;-95
2021/04/25 15:31:13;;;;;;;4.53;3.00;;;20.80;11.50;;;;;;6106470;23;20431;-96
2021/04/25 15:33:39;;;;;;;3.17;2.83;;;20.80;11.10;;;;;;6107757;23;20384;-96
2021/04/25 15:36:36;;;;;;;4.93;2.80;;;20.90;10.50;;;;;;6113903;23;20564;-94
2021/04/25 15:39:02;;;;;;;3.23;2.93;;;21.00;9.40;;;;;;6112350;23;20239;-94
2021/04/25 15:41:28;;;;;;;3.17;2.87;;;21.10;10.20;;;;;;6107263;23;20650;-94
2021/04/25 15:44:10;;;;;;;4.07;3.40;;;20.90;9.80;;;;;;6105886;23;20383;-93
2021/04/25 15:46:36;;;;;;;4.47;3.73;;;20.90;9.40;;;;;;6106237;23;20155;-94
2021/04/25 15:49:31;;;;;;;3.77;2.93;;;20.90;10.00;;;;;;6106495;23;20774;-92
2021/04/25 15:51:57;;;;;;;2.73;2.53;;;20.80;10.50;;;;;;6105357;23;20168;-90
2021/04/25 15:54:46;;;;;;;3.50;3.07;;;21.00;10.00;;;;;;6105537;23;20370;-89
2021/04/25 15:57:12;;;;;;;3.00;2.80;;;21.20;9.80;;;;;;6105055;23;20183;-91
2021/04/25 16:00:04;;;;;;;3.27;3.00;;;20.90;10.10;;;;;;6104962;23;20400;-90
2021/04/25 16:02:30;;;;;;;3.07;2.77;;;21.20;9.50;;;;;;6104723;23;20443;-96
2021/04/25 16:04:56;;;;;;;3.20;2.90;;;21.20;8.80;;;;;;6105065;23;20380;-90
2021/04/25 16:08:00;;;;;;;3.10;2.80;;;21.10;9.30;;;;;;6106222;23;20148;-91
2021/04/25 16:10:28;;;;;;;6.70;3.67;;;20.90;9.40;;;;;;6106413;23;20862;-90
2021/04/25 16:13:22;;;;;;;4.13;3.40;;;21.30;10.00;;;;;;6106294;23;20973;-91
2021/04/25 16:15:48;;;;;;;3.17;2.80;;;21.30;10.50;;;;;;6105928;23;20464;-89
2021/04/25 16:18:22;;;;;;;3.30;2.53;;;21.50;10.70;;;;;;6105562;23;20372;-89
2021/04/25 16:20:50;;;;;;;2.43;2.23;;;21.30;10.50;;;;;;6131427;23;20360;-89
2021/04/25 16:27:07;;;;;;;3.97;2.60;;;21.70;11.20;;;;;;6130605;23;20443;-93
2021/04/25 16:29:33;;;;;;;2.80;2.30;;;21.40;10.40;;;;;;6103039;23;20389;-92
2021/04/25 16:32:00;;;;;;;5.30;4.80;;;20.90;10.30;;;;;;6080920;23;20413;-93
2021/04/25 16:37:48;;;;;;;5.00;4.50;;;21.90;9.70;;;;;;6104704;23;20409;-93
2021/04/25 16:43:37;;;;;;;3.77;2.40;;;22.70;8.50;;;;;;6105273;23;20452;-92
2021/04/25 16:49:26;;;;;;;2.67;2.47;;;23.50;8.20;;;;;;6104354;23;20404;-92
2021/04/25 16:55:14;;;;;;;3.33;2.93;;;23.40;8.70;;;;;;6106303;23;20347;-94
2021/04/25 17:01:05;;;;;;;5.17;3.10;;;23.00;8.70;;;;;;6112147;23;20357;-92
2021/04/25 17:06:54;;;;;;;5.47;3.90;;;22.20;9.70;;;;;;6110212;23;20353;-95
2021/04/25 17:12:43;;;;;;;7.70;6.90;;;22.50;9.50;;;;;;6115970;23;20463;-94
2021/04/25 17:18:31;;;;;;;3.80;2.77;;;22.70;9.20;;;;;;6106893;23;20378;-93
2021/04/25 17:21:09;;;;;;;3.00;2.70;;;22.40;9.50;;;;;;6077717;23;20382;-91
2021/04/25 17:23:35;;;;;;;2.90;2.70;;;22.40;9.50;;;;;;6077870;23;20381;-92
2021/04/25 17:26:10;;;;;;;2.67;2.27;;;22.00;9.40;;;;;;6077671;23;20389;-94
2021/04/25 17:35:59;;;;;;;2.63;2.43;;;22.20;9.80;;;;;;6130035;23;20346;-90
2021/04/25 17:38:27;;;;;;;4.30;2.50;;;22.10;10.40;;;;;;6127750;23;20388;-91
2021/04/25 17:40:53;;;;;;;3.40;3.10;;;22.10;10.40;;;;;;6128481;23;20149;-93
2021/04/25 17:43:19;;;;;;;4.00;3.60;;;21.90;10.50;;;;;;6129345;23;20399;-92
2021/04/25 17:46:40;;;;;;;2.73;2.53;;;21.30;10.70;;;;;;6127697;23;20222;-89
2021/04/25 17:49:05;;;;;;;6.80;2.97;;;21.30;10.90;;;;;;6128952;23;20152;-91
2021/04/25 17:51:53;;;;;;;4.90;2.40;;;21.10;11.10;;;;;;6130047;23;20843;-95
2021/04/25 17:54:19;;;;;;;3.37;2.40;;;21.30;11.10;;;;;;6129012;23;20223;-91
2021/04/25 17:57:06;;;;;;;3.43;2.40;;;21.10;11.30;;;;;;6129023;23;20714;-92
2021/04/25 17:59:31;;;;;;;4.97;2.40;;;21.10;11.50;;;;;;6129067;23;20156;-91
2021/04/25 18:01:59;;;;;;;3.40;2.40;;;21.10;11.50;;;;;;6128732;23;20416;-91
2021/04/25 18:04:25;;;;;;;3.30;2.73;;;20.50;11.40;;;;;;6128787;23;20231;-89
2021/04/25 18:07:09;;;;;;;2.67;2.47;;;20.70;12.00;;;;;;6126644;23;20363;-88
2021/04/25 18:09:35;;;;;;;2.90;2.70;;;20.50;11.90;;;;;;6127988;23;20384;-90
2021/04/25 18:19:46;;;;;;;4.50;2.67;;;19.70;12.70;;;;;;6166571;23;20453;-93
2021/04/25 18:22:20;;;;;;;5.23;2.50;;;19.40;13.00;;;;;;6161746;23;20452;-90
2021/04/25 18:24:46;;;;;;;5.57;3.03;;;19.50;13.80;;;;;;6186325;23;20173;-90
2021/04/25 18:27:13;;;;;;;2.47;2.27;;;19.10;13.10;;;;;;6186994;23;20385;-90
2021/04/25 18:29:39;;;;;;;5.80;2.47;;;18.90;13.30;;;;;;6187151;23;20378;-90
2021/04/25 18:32:06;;;;;;;2.57;2.37;;;19.00;13.50;;;;;;6186390;23;20782;-91
2021/04/25 18:34:33;;;;;;;3.27;2.67;;;18.90;14.70;;;;;;6186534;23;20462;-90
2021/04/25 18:36:58;;;;;;;5.70;2.57;;;18.70;14.10;;;;;;6186403;23;20754;-90
2021/04/25 18:39:24;;;;;;;2.63;2.43;;;18.70;14.50;;;;;;6187054;23;20391;-90
2021/04/25 18:42:18;;;;;;;2.47;2.27;;;18.50;14.90;;;;;;6187102;23;20475;-90
2021/04/25 18:44:44;;;;;;;2.63;2.43;;;18.40;14.90;;;;;;6188598;23;20371;-91
2021/04/25 18:47:10;;;;;;;3.37;2.30;;;18.10;15.20;;;;;;6187651;23;20379;-90
2021/04/25 18:49:36;;;;;;;2.80;2.50;;;17.90;15.40;;;;;;6188922;23;20582;-91
2021/04/25 18:52:35;;;;;;;3.87;3.00;;;17.80;15.10;;;;;;6189179;23;20566;-91
2021/04/25 18:55:02;;;;;;;3.70;2.70;;;17.70;15.60;;;;;;6188058;23;20154;-91
2021/04/25 18:57:32;;;;;;;4.30;2.90;;;17.40;15.40;;;;;;6186180;23;20375;-89
2021/04/25 18:59:58;;;;;;;2.27;1.97;;;17.30;16.20;;;;;;6186913;23;20386;-93
2021/04/25 19:02:51;;;;;;;4.47;2.53;;;17.10;15.80;;;;;;6188485;23;20378;-91
2021/04/25 19:05:17;;;;;;;2.20;2.10;;;16.80;15.80;;;;;;6188596;23;20544;-92
2021/04/25 19:07:48;;;;;;;3.33;3.03;;;16.80;15.90;;;;;;6188262;23;20375;-93
2021/04/25 19:10:15;;;;;;;2.73;2.20;;;16.30;16.10;;;;;;6188927;23;20383;-92
